Time;durP1;ratioP1;P1;durP2;ratioP2;P2;SDS_P1;SDS_P2;PMS_P1;PMS_P2;Temp;Humidity;BMP_temperature;BMP_pressure;BME280_temperature;BME280_humidity;BME280_pressure;Samples;Min_cycle;Max_cycle;Signal;HPM_P1;HPM_P2
2023/03/25 00:01:33;;;;;;;2.22;1.15;;;10.80;83.90;;;;;;5084422;28;20032;-70
2023/03/25 00:03:59;;;;;;;1.67;0.88;;;10.80;83.80;;;;;;5085812;28;20161;-69
2023/03/25 00:06:27;;;;;;;5.97;1.20;;;10.80;83.80;;;;;;5078547;28;20503;-69
2023/03/25 00:08:53;;;;;;;2.42;1.20;;;10.70;83.80;;;;;;5076366;28;20089;-69
2023/03/25 00:11:19;;;;;;;1.48;0.82;;;10.80;83.80;;;;;;5081416;28;20024;-70
2023/03/25 00:13:44;;;;;;;3.30;1.02;;;10.80;83.80;;;;;;5078459;28;20024;-69
2023/03/25 00:16:10;;;;;;;1.90;0.93;;;10.80;83.80;;;;;;5077879;28;20028;-68
2023/03/25 00:18:36;;;;;;;1.67;0.98;;;10.70;83.70;;;;;;5078881;28;20511;-70
2023/03/25 00:21:03;;;;;;;4.07;1.23;;;10.70;83.80;;;;;;5078639;28;20032;-71
2023/03/25 00:23:30;;;;;;;1.08;0.85;;;10.70;83.90;;;;;;5082788;28;20043;-70
2023/03/25 00:26:00;;;;;;;3.70;1.10;;;10.70;84.00;;;;;;5077963;28;20097;-70
2023/03/25 00:28:31;;;;;;;2.50;0.98;;;10.70;84.00;;;;;;5078443;28;20032;-70
2023/03/25 00:31:05;;;;;;;2.80;1.10;;;10.60;84.00;;;;;;5080157;28;20410;-69
2023/03/25 00:33:32;;;;;;;1.70;0.80;;;10.60;84.10;;;;;;5077104;28;20051;-69
2023/03/25 00:35:58;;;;;;;4.00;0.82;;;10.60;84.10;;;;;;5076896;28;20389;-69
2023/03/25 00:38:33;;;;;;;4.30;1.00;;;10.70;84.10;;;;;;5078614;28;20490;-68
2023/03/25 00:41:26;;;;;;;3.28;1.02;;;10.60;84.10;;;;;;5078672;28;20025;-68
2023/03/25 00:43:54;;;;;;;1.70;0.90;;;10.60;84.10;;;;;;5079440;28;20030;-68
2023/03/25 00:46:21;;;;;;;3.60;1.17;;;10.70;84.20;;;;;;5078313;28;20029;-68
2023/03/25 00:48:47;;;;;;;2.28;0.88;;;10.70;84.20;;;;;;5077129;28;20032;-69
2023/03/25 00:51:18;;;;;;;1.48;0.90;;;10.70;84.20;;;;;;5082567;28;20058;-68
2023/03/25 00:53:44;;;;;;;1.85;0.95;;;10.70;84.80;;;;;;5076746;28;20024;-68
2023/03/25 00:56:11;;;;;;;2.42;1.05;;;10.70;84.20;;;;;;5077821;28;20028;-68
2023/03/25 00:58:37;;;;;;;2.17;1.08;;;10.60;84.10;;;;;;5077218;28;20486;-68
2023/03/25 01:01:12;;;;;;;2.85;1.00;;;10.70;84.20;;;;;;5079601;28;20024;-68
2023/03/25 01:03:38;;;;;;;2.05;1.10;;;10.60;84.10;;;;;;5078441;28;20029;-68
2023/03/25 01:06:20;;;;;;;5.03;1.27;;;10.60;84.10;;;;;;5073689;28;20498;-67
2023/03/25 01:08:46;;;;;;;3.33;1.10;;;10.60;84.20;;;;;;5076574;28;20024;-67
2023/03/25 01:11:19;;;;;;;6.47;1.63;;;10.60;84.20;;;;;;5075381;28;20036;-69
2023/03/25 01:13:44;;;;;;;2.78;1.33;;;10.60;84.10;;;;;;5077124;28;20478;-68
2023/03/25 01:16:10;;;;;;;3.38;1.23;;;10.60;84.10;;;;;;5076998;28;20035;-67
2023/03/25 01:18:37;;;;;;;4.50;1.30;;;10.60;83.90;;;;;;5077670;28;20032;-69
2023/03/25 01:21:06;;;;;;;3.42;1.50;;;10.60;84.00;;;;;;5081331;28;20028;-67
2023/03/25 01:23:32;;;;;;;2.35;1.00;;;10.60;83.90;;;;;;5081862;28;20642;-68
2023/03/25 01:25:58;;;;;;;4.32;1.27;;;10.60;83.80;;;;;;5081952;28;20733;-68
2023/03/25 01:28:24;;;;;;;2.92;1.00;;;10.60;83.70;;;;;;5081970;28;20024;-68
2023/03/25 01:30:49;;;;;;;3.10;1.20;;;10.60;83.70;;;;;;5080191;28;20437;-68
2023/03/25 01:33:15;;;;;;;1.38;0.90;;;10.60;83.70;;;;;;5081295;28;20486;-68
2023/03/25 01:35:41;;;;;;;2.33;1.10;;;10.60;83.70;;;;;;5079881;28;20031;-68
2023/03/25 01:38:07;;;;;;;4.18;1.40;;;10.60;83.60;;;;;;5081019;28;20033;-68
2023/03/25 01:40:32;;;;;;;2.20;0.90;;;10.60;83.70;;;;;;5081894;28;20119;-69
2023/03/25 01:42:58;;;;;;;4.20;1.30;;;10.60;83.70;;;;;;5080572;28;20654;-68
2023/03/25 01:45:28;;;;;;;2.38;0.90;;;10.60;83.70;;;;;;5079193;28;20103;-68
2023/03/25 01:48:04;;;;;;;2.97;1.02;;;10.60;83.70;;;;;;5079601;28;20097;-68
2023/03/25 01:50:32;;;;;;;3.47;1.10;;;10.60;83.60;;;;;;5080608;28;20492;-68
2023/03/25 01:53:00;;;;;;;1.10;0.90;;;10.60;83.50;;;;;;5081055;28;20032;-68
2023/03/25 01:55:26;;;;;;;3.55;1.00;;;10.60;83.50;;;;;;5082413;28;20040;-69
2023/03/25 01:57:55;;;;;;;2.60;1.10;;;10.60;83.50;;;;;;5080196;28;20025;-68
2023/03/25 02:00:21;;;;;;;4.60;1.45;;;10.70;83.40;;;;;;5079672;28;20046;-68
2023/03/25 02:02:47;;;;;;;1.33;0.80;;;10.60;83.40;;;;;;5080538;28;20031;-68
2023/03/25 02:05:24;;;;;;;5.35;1.73;;;10.60;83.20;;;;;;5078861;28;20055;-68
2023/03/25 02:07:51;;;;;;;3.38;1.30;;;10.60;83.30;;;;;;5079758;28;20774;-67
2023/03/25 02:10:18;;;;;;;7.38;1.40;;;10.60;83.30;;;;;;5080838;28;20486;-69
2023/03/25 02:12:44;;;;;;;2.58;1.30;;;10.50;83.40;;;;;;5080384;28;20023;-68
2023/03/25 02:15:11;;;;;;;4.10;0.93;;;10.50;83.50;;;;;;5078485;28;20084;-68
2023/03/25 02:17:46;;;;;;;1.67;0.90;;;10.50;83.70;;;;;;5078969;28;20051;-69
2023/03/25 02:20:48;;;;;;;1.25;0.90;;;10.50;83.70;;;;;;5080935;28;20074;-69
2023/03/25 02:23:27;;;;;;;4.05;0.88;;;10.50;83.70;;;;;;5078836;28;20025;-68
2023/03/25 02:26:28;;;;;;;1.90;0.93;;;10.50;83.70;;;;;;5078466;28;20036;-69
2023/03/25 02:29:04;;;;;;;3.78;1.30;;;10.50;83.90;;;;;;5076085;28;20035;-70
2023/03/25 02:31:54;;;;;;;3.85;1.00;;;10.40;83.90;;;;;;5077206;28;20023;-69
2023/03/25 02:34:48;;;;;;;3.65;1.20;;;10.40;84.20;;;;;;5078810;28;20035;-67
2023/03/25 02:37:46;;;;;;;5.93;1.60;;;10.30;84.30;;;;;;5081618;28;20024;-69
2023/03/25 02:40:21;;;;;;;6.05;1.58;;;10.30;84.60;;;;;;5065691;28;20040;-68
2023/03/25 02:43:02;;;;;;;4.28;1.30;;;10.20;84.50;;;;;;5080109;28;20028;-66
2023/03/25 02:45:39;;;;;;;3.65;1.35;;;10.30;84.70;;;;;;5078719;28;20029;-69
2023/03/25 02:48:10;;;;;;;2.67;1.08;;;10.20;84.80;;;;;;5079724;28;20037;-69
2023/03/25 02:50:52;;;;;;;3.00;1.40;;;10.20;85.00;;;;;;5078306;28;20031;-69
2023/03/25 02:53:39;;;;;;;3.33;1.30;;;10.10;85.40;;;;;;5078042;28;20024;-69
2023/03/25 02:56:11;;;;;;;2.83;1.40;;;10.10;85.60;;;;;;5080021;28;20032;-68
2023/03/25 02:58:39;;;;;;;3.85;1.40;;;10.00;85.60;;;;;;5076839;28;20027;-69
2023/03/25 03:01:05;;;;;;;5.10;1.40;;;10.00;85.90;;;;;;5079178;28;20024;-69
2023/03/25 03:03:30;;;;;;;2.50;1.23;;;10.00;86.10;;;;;;5081368;28;20031;-69
2023/03/25 03:05:59;;;;;;;2.75;1.27;;;9.90;86.30;;;;;;5079072;28;20024;-68
2023/03/25 03:08:30;;;;;;;2.92;1.60;;;9.90;86.40;;;;;;5077188;28;20028;-68
2023/03/25 03:11:26;;;;;;;2.50;1.40;;;9.90;86.50;;;;;;5078247;28;20032;-68
2023/03/25 03:14:14;;;;;;;3.53;1.42;;;9.90;86.60;;;;;;5078500;28;20024;-67
2023/03/25 03:16:59;;;;;;;2.05;1.20;;;9.90;86.70;;;;;;5078427;28;20043;-67
2023/03/25 03:19:33;;;;;;;4.32;1.70;;;9.90;86.70;;;;;;5077522;28;20024;-68
2023/03/25 03:22:14;;;;;;;2.15;1.23;;;9.80;86.70;;;;;;5075024;28;20031;-67
2023/03/25 03:25:00;;;;;;;4.50;1.30;;;9.80;86.90;;;;;;5078605;28;20028;-68
2023/03/25 03:27:34;;;;;;;2.42;1.35;;;9.80;87.00;;;;;;5080453;28;20052;-68
2023/03/25 03:30:23;;;;;;;2.17;1.00;;;9.80;87.00;;;;;;5077810;28;20041;-67
2023/03/25 03:33:02;;;;;;;3.28;1.10;;;9.80;87.00;;;;;;5069368;28;20032;-68
2023/03/25 03:35:32;;;;;;;2.08;1.30;;;9.80;87.00;;;;;;5078160;28;20033;-67
2023/03/25 03:38:02;;;;;;;4.88;1.55;;;9.80;87.30;;;;;;5076385;28;20529;-67
2023/03/25 03:40:30;;;;;;;2.00;1.30;;;9.80;87.40;;;;;;5075121;28;20016;-68
2023/03/25 03:43:06;;;;;;;2.20;1.40;;;9.70;87.40;;;;;;5078454;28;20052;-67
2023/03/25 03:45:41;;;;;;;2.70;1.23;;;9.70;87.40;;;;;;5077544;28;20028;-67
2023/03/25 03:48:24;;;;;;;3.22;1.50;;;9.80;87.50;;;;;;5075653;28;20107;-67
2023/03/25 03:50:55;;;;;;;2.03;1.30;;;9.70;87.50;;;;;;5079525;28;20093;-67
2023/03/25 03:53:33;;;;;;;2.22;1.33;;;9.70;87.60;;;;;;5078835;28;20031;-67
2023/03/25 03:56:05;;;;;;;3.83;1.70;;;9.70;87.60;;;;;;5075987;28;20032;-68
2023/03/25 03:58:36;;;;;;;2.75;1.42;;;9.70;87.80;;;;;;5077149;28;20566;-66
2023/03/25 04:01:26;;;;;;;4.07;1.20;;;9.70;88.00;;;;;;5079352;28;20039;-65
2023/03/25 04:03:59;;;;;;;5.68;2.00;;;9.70;87.90;;;;;;5077876;28;20768;-66
2023/03/25 04:07:09;;;;;;;2.03;1.20;;;9.80;88.00;;;;;;5078707;28;20028;-66
2023/03/25 04:10:01;;;;;;;3.50;1.50;;;9.70;88.10;;;;;;5079569;28;20047;-68
2023/03/25 04:12:30;;;;;;;2.67;1.30;;;9.70;88.20;;;;;;5076645;28;20040;-68
2023/03/25 04:14:59;;;;;;;3.47;1.60;;;9.70;88.30;;;;;;5077864;28;20036;-68
2023/03/25 04:17:28;;;;;;;3.47;1.55;;;9.70;88.10;;;;;;5074977;28;20390;-67
2023/03/25 04:19:55;;;;;;;2.35;1.30;;;9.70;88.20;;;;;;5076619;28;20017;-67
2023/03/25 04:22:20;;;;;;;3.05;1.65;;;9.70;88.20;;;;;;5078182;28;20020;-68
2023/03/25 04:24:48;;;;;;;4.50;1.75;;;9.70;88.30;;;;;;5079312;28;20394;-68
2023/03/25 04:27:15;;;;;;;2.53;1.40;;;9.70;88.40;;;;;;5075973;28;20033;-66
2023/03/25 04:29:42;;;;;;;3.53;1.52;;;9.70;88.50;;;;;;5078857;28;20173;-67
2023/03/25 04:32:10;;;;;;;5.32;1.67;;;9.70;88.50;;;;;;5075969;28;20578;-66
2023/03/25 04:34:36;;;;;;;2.80;1.38;;;9.70;88.50;;;;;;5076131;28;20390;-67
2023/03/25 04:37:02;;;;;;;4.82;1.80;;;9.70;88.40;;;;;;5079998;28;20034;-68
2023/03/25 04:39:28;;;;;;;4.05;1.40;;;9.80;88.50;;;;;;5075321;28;20120;-68
2023/03/25 04:41:55;;;;;;;2.70;1.27;;;9.80;88.30;;;;;;5078721;28;20093;-67
2023/03/25 04:44:24;;;;;;;6.32;1.38;;;9.80;88.30;;;;;;5079289;28;20017;-68
2023/03/25 04:46:51;;;;;;;3.67;1.50;;;9.80;88.30;;;;;;5077715;28;20060;-68
2023/03/25 04:49:20;;;;;;;3.65;1.80;;;9.80;88.20;;;;;;5075313;28;20019;-67
2023/03/25 04:51:48;;;;;;;4.80;1.52;;;9.80;88.20;;;;;;5077795;28;20028;-67
2023/03/25 04:54:14;;;;;;;8.13;2.20;;;9.70;88.40;;;;;;5078577;28;20021;-68
2023/03/25 04:56:40;;;;;;;6.28;1.70;;;9.70;88.50;;;;;;5081802;28;20174;-68
2023/03/25 04:59:05;;;;;;;4.82;1.90;;;9.70;88.50;;;;;;5082619;28;20478;-67
2023/03/25 05:01:33;;;;;;;3.03;1.67;;;9.70;88.60;;;;;;5081252;28;20032;-67
2023/03/25 05:04:04;;;;;;;5.57;1.48;;;9.70;88.60;;;;;;5081162;28;20016;-68
2023/03/25 05:06:34;;;;;;;4.43;1.50;;;9.80;88.60;;;;;;5080639;28;20039;-67
2023/03/25 05:09:03;;;;;;;4.13;1.35;;;9.80;88.50;;;;;;5083427;28;20089;-68
2023/03/25 05:11:35;;;;;;;4.40;1.23;;;9.80;88.40;;;;;;5081311;28;20028;-67
2023/03/25 05:14:01;;;;;;;2.30;1.20;;;9.80;88.30;;;;;;5081098;28;20059;-66
2023/03/25 05:16:27;;;;;;;6.30;1.40;;;9.80;88.30;;;;;;5081452;28;20737;-67
2023/03/25 05:18:52;;;;;;;4.18;1.38;;;9.80;88.20;;;;;;5081952;28;20081;-68
2023/03/25 05:21:18;;;;;;;3.67;1.13;;;9.80;88.10;;;;;;5082597;28;20016;-67
2023/03/25 05:23:44;;;;;;;6.10;1.50;;;9.90;88.10;;;;;;5082008;28;20016;-66
2023/03/25 05:26:11;;;;;;;4.20;1.42;;;9.90;88.00;;;;;;5082105;28;20662;-67
2023/03/25 05:28:37;;;;;;;6.05;1.40;;;9.90;87.90;;;;;;5079400;28;20389;-68
2023/03/25 05:31:07;;;;;;;2.30;1.20;;;9.90;87.90;;;;;;5080895;28;20043;-68
2023/03/25 05:33:33;;;;;;;4.43;1.77;;;9.90;87.90;;;;;;5081434;28;20113;-69
2023/03/25 05:36:00;;;;;;;6.40;1.70;;;9.90;87.90;;;;;;5079554;28;20021;-69
2023/03/25 05:38:25;;;;;;;2.03;1.35;;;9.90;87.80;;;;;;5080279;28;20016;-70
2023/03/25 05:40:51;;;;;;;3.50;1.60;;;9.90;87.70;;;;;;5081039;28;20092;-69
2023/03/25 05:43:21;;;;;;;3.50;1.55;;;9.90;87.70;;;;;;5082720;28;20494;-68
2023/03/25 05:45:47;;;;;;;2.88;1.60;;;9.90;87.70;;;;;;5080481;28;20024;-67
2023/03/25 05:48:13;;;;;;;4.65;1.45;;;9.90;87.60;;;;;;5082462;28;20141;-67
2023/03/25 05:50:41;;;;;;;3.72;1.58;;;9.90;87.60;;;;;;5081147;28;20078;-67
2023/03/25 05:53:10;;;;;;;3.95;1.70;;;9.80;87.60;;;;;;5077091;28;20047;-68
2023/03/25 05:55:35;;;;;;;3.22;1.70;;;9.90;87.70;;;;;;5077810;28;20058;-68
2023/03/25 05:58:01;;;;;;;4.30;1.33;;;9.80;87.70;;;;;;5079736;28;20052;-68
2023/03/25 06:00:26;;;;;;;3.95;1.50;;;9.80;87.70;;;;;;5080430;28;20117;-68
2023/03/25 06:02:52;;;;;;;6.13;1.90;;;9.80;87.80;;;;;;5081699;28;20081;-68
2023/03/25 06:05:22;;;;;;;5.93;1.85;;;9.80;87.80;;;;;;5080658;28;20039;-67
2023/03/25 06:07:48;;;;;;;3.65;1.55;;;9.80;87.90;;;;;;5081265;28;20773;-68
2023/03/25 06:10:15;;;;;;;2.72;1.45;;;9.80;88.00;;;;;;5082613;28;20108;-66
2023/03/25 06:12:45;;;;;;;4.55;1.60;;;9.70;87.90;;;;;;5079404;28;20111;-67
2023/03/25 06:15:13;;;;;;;4.45;1.70;;;9.80;87.90;;;;;;5080694;28;20035;-68
2023/03/25 06:17:39;;;;;;;5.60;1.90;;;9.80;87.70;;;;;;5081900;28;20040;-67
2023/03/25 06:20:11;;;;;;;5.53;1.98;;;9.80;87.80;;;;;;5080107;28;20020;-66
2023/03/25 06:22:37;;;;;;;;;;;9.80;87.90;;;;;;5079840;28;20043;-66
2023/03/25 06:25:03;;;;;;;3.67;1.48;;;9.70;87.90;;;;;;5080356;28;19912;-66
2023/03/25 06:27:28;;;;;;;4.13;1.73;;;9.70;88.10;;;;;;5080540;28;20117;-68
2023/03/25 06:29:54;;;;;;;5.20;1.80;;;9.70;88.30;;;;;;5078876;28;20025;-67
2023/03/25 06:32:20;;;;;;;5.13;1.60;;;9.70;88.50;;;;;;5081647;28;20498;-68
2023/03/25 06:34:45;;;;;;;4.93;1.52;;;9.60;88.50;;;;;;5080939;28;20024;-68
2023/03/25 06:37:11;;;;;;;3.47;1.63;;;9.70;88.70;;;;;;5079448;28;20025;-68
2023/03/25 06:39:36;;;;;;;4.68;2.10;;;9.70;88.70;;;;;;5079252;28;20032;-66
2023/03/25 06:42:04;;;;;;;5.43;2.10;;;9.70;88.70;;;;;;5080573;28;20020;-68
2023/03/25 06:44:29;;;;;;;9.15;2.35;;;9.70;88.70;;;;;;5079810;28;20058;-69
2023/03/25 06:46:55;;;;;;;3.53;1.70;;;9.70;88.90;;;;;;5081315;28;20048;-67
2023/03/25 06:49:21;;;;;;;3.63;1.60;;;9.70;88.80;;;;;;5080931;28;20024;-68
2023/03/25 06:51:47;;;;;;;2.67;1.70;;;9.70;88.70;;;;;;5082548;28;20055;-68
2023/03/25 06:54:12;;;;;;;4.45;1.67;;;9.80;88.70;;;;;;5086140;28;20059;-66
2023/03/25 06:56:38;;;;;;;5.30;1.50;;;9.80;88.50;;;;;;5086529;28;20027;-67
2023/03/25 06:59:04;;;;;;;7.57;1.60;;;9.80;88.40;;;;;;5086429;28;20518;-69
2023/03/25 07:01:30;;;;;;;4.60;1.48;;;9.80;88.40;;;;;;5085621;28;20016;-69
2023/03/25 07:03:56;;;;;;;4.18;1.75;;;9.90;88.40;;;;;;5078663;28;20043;-69
2023/03/25 07:06:23;;;;;;;5.00;1.50;;;9.90;88.20;;;;;;5085392;28;20027;-67
2023/03/25 07:08:49;;;;;;;8.50;2.10;;;9.90;88.20;;;;;;5086804;28;20020;-69
2023/03/25 07:11:19;;;;;;;6.97;1.70;;;9.90;88.20;;;;;;5087007;28;20024;-67
2023/03/25 07:13:44;;;;;;;5.78;1.90;;;9.90;88.20;;;;;;5081758;28;20031;-67
2023/03/25 07:16:10;;;;;;;5.78;1.90;;;9.90;88.10;;;;;;5077838;28;20035;-67
2023/03/25 07:18:36;;;;;;;5.70;2.05;;;9.90;87.90;;;;;;5081808;28;20020;-67
2023/03/25 07:21:02;;;;;;;4.72;1.90;;;10.00;87.80;;;;;;5079387;28;20024;-67
2023/03/25 07:23:28;;;;;;;4.03;1.83;;;10.00;87.60;;;;;;5079733;28;20371;-66
2023/03/25 07:25:55;;;;;;;5.00;1.73;;;10.00;87.40;;;;;;5078055;28;20091;-68
2023/03/25 07:28:21;;;;;;;3.60;1.50;;;10.00;87.40;;;;;;5080256;28;20027;-68
2023/03/25 07:30:47;;;;;;;3.42;1.42;;;10.10;87.40;;;;;;5078054;28;20020;-68
2023/03/25 07:33:12;;;;;;;6.82;1.80;;;10.10;87.90;;;;;;5077544;28;20393;-66
2023/03/25 07:35:38;;;;;;;3.63;1.50;;;10.00;87.30;;;;;;5076543;28;20020;-66
2023/03/25 07:38:03;;;;;;;4.38;1.40;;;10.00;87.40;;;;;;5082399;28;20031;-68
2023/03/25 07:40:29;;;;;;;4.28;1.92;;;10.00;87.50;;;;;;5077864;28;20364;-67
2023/03/25 07:42:55;;;;;;;4.43;1.60;;;10.00;87.60;;;;;;5078160;28;20387;-67
2023/03/25 07:45:21;;;;;;;6.15;1.73;;;10.00;87.70;;;;;;5078096;28;20067;-67
2023/03/25 07:47:49;;;;;;;2.60;1.10;;;9.90;87.70;;;;;;5078763;28;20032;-67
2023/03/25 07:50:16;;;;;;;4.22;1.35;;;10.00;87.70;;;;;;5082410;28;20044;-68
2023/03/25 07:52:42;;;;;;;4.28;1.60;;;10.00;87.70;;;;;;5079689;28;20076;-69
2023/03/25 07:55:08;;;;;;;8.00;1.67;;;10.00;87.70;;;;;;5082110;28;20032;-68
2023/03/25 07:57:34;;;;;;;7.20;1.70;;;9.90;87.80;;;;;;5076043;28;20036;-70
2023/03/25 07:59:59;;;;;;;5.80;1.88;;;9.90;87.90;;;;;;5080391;28;20024;-69
2023/03/25 08:02:25;;;;;;;5.72;1.92;;;10.00;88.10;;;;;;5083184;28;20107;-69
2023/03/25 08:04:53;;;;;;;3.42;1.70;;;9.90;88.00;;;;;;5078282;28;20077;-69
2023/03/25 08:07:19;;;;;;;2.83;1.08;;;10.00;88.10;;;;;;5076034;28;21818;-69
2023/03/25 08:09:45;;;;;;;3.92;1.60;;;10.10;88.00;;;;;;5076484;28;20096;-68
2023/03/25 08:12:10;;;;;;;5.70;1.40;;;10.10;87.90;;;;;;5081911;28;20175;-70
2023/03/25 08:14:36;;;;;;;7.35;1.73;;;10.10;88.00;;;;;;5078978;28;20428;-69
2023/03/25 08:17:03;;;;;;;4.35;1.50;;;10.20;87.90;;;;;;5080110;28;20062;-69
2023/03/25 08:19:29;;;;;;;7.30;1.73;;;10.20;87.70;;;;;;5082121;28;20020;-69
2023/03/25 08:21:54;;;;;;;4.10;1.42;;;10.30;87.70;;;;;;5074599;28;20496;-69
2023/03/25 08:24:20;;;;;;;5.20;1.60;;;10.20;87.70;;;;;;5081442;28;20596;-68
2023/03/25 08:26:46;;;;;;;4.85;1.55;;;10.20;87.80;;;;;;5075575;28;20078;-68
2023/03/25 08:29:16;;;;;;;2.83;1.17;;;10.20;87.80;;;;;;5080728;28;20020;-68
2023/03/25 08:31:45;;;;;;;3.72;1.73;;;10.30;87.90;;;;;;5083844;28;20497;-67
2023/03/25 08:34:11;;;;;;;4.00;1.60;;;10.40;87.90;;;;;;5081820;28;20036;-68
2023/03/25 08:36:38;;;;;;;5.80;1.75;;;10.40;87.50;;;;;;5082020;28;20105;-69
2023/03/25 08:39:08;;;;;;;4.85;1.70;;;10.50;87.50;;;;;;5084549;28;20024;-69
2023/03/25 08:41:34;;;;;;;6.97;1.88;;;10.50;87.40;;;;;;5085932;28;20016;-68
2023/03/25 08:44:00;;;;;;;8.07;1.77;;;10.50;87.30;;;;;;5085982;28;20051;-69
2023/03/25 08:46:25;;;;;;;4.32;1.45;;;10.50;87.20;;;;;;5083898;28;20103;-68
2023/03/25 08:48:52;;;;;;;6.95;1.85;;;10.60;87.10;;;;;;5089136;28;20039;-68
2023/03/25 08:51:18;;;;;;;5.53;1.88;;;10.60;87.20;;;;;;5083695;28;20036;-69
2023/03/25 08:53:43;;;;;;;5.78;1.60;;;10.60;87.00;;;;;;5086154;28;20024;-68
2023/03/25 08:56:10;;;;;;;6.57;1.90;;;10.80;87.00;;;;;;5085405;28;20055;-68
2023/03/25 08:58:35;;;;;;;5.85;1.58;;;10.90;86.70;;;;;;5084967;28;20028;-69
2023/03/25 09:01:01;;;;;;;5.60;1.50;;;11.00;86.50;;;;;;5084675;28;20032;-69
2023/03/25 09:03:27;;;;;;;5.45;1.70;;;11.00;86.30;;;;;;5086867;28;20555;-68
2023/03/25 09:05:53;;;;;;;6.30;1.73;;;10.90;87.00;;;;;;5085152;28;20397;-68
2023/03/25 09:08:18;;;;;;;5.97;1.67;;;10.90;86.50;;;;;;5084037;28;20020;-69
2023/03/25 09:10:44;;;;;;;5.72;1.80;;;10.90;86.70;;;;;;5086220;28;20035;-70
2023/03/25 09:13:10;;;;;;;5.75;1.27;;;10.90;86.60;;;;;;5085860;28;20039;-69
2023/03/25 09:15:36;;;;;;;2.33;1.38;;;10.90;86.80;;;;;;5084246;28;20448;-67
2023/03/25 09:18:02;;;;;;;4.22;1.30;;;10.90;86.90;;;;;;5087646;28;20115;-69
2023/03/25 09:20:27;;;;;;;2.65;1.30;;;10.80;86.90;;;;;;5085100;28;20765;-69
2023/03/25 09:22:53;;;;;;;6.57;1.70;;;10.80;87.10;;;;;;5084948;28;20051;-68
2023/03/25 09:25:19;;;;;;;4.55;1.65;;;10.70;87.20;;;;;;5088121;28;20051;-69
2023/03/25 09:27:44;;;;;;;3.08;1.73;;;10.70;87.40;;;;;;5082650;28;20055;-69
2023/03/25 09:30:11;;;;;;;5.95;2.08;;;10.80;87.40;;;;;;5084956;28;20025;-69
2023/03/25 09:32:37;;;;;;;8.50;1.75;;;10.80;87.40;;;;;;5082849;28;20020;-69
2023/03/25 09:35:03;;;;;;;5.03;1.83;;;10.70;88.10;;;;;;5080586;28;20397;-69
2023/03/25 09:37:28;;;;;;;7.22;1.77;;;10.60;87.60;;;;;;5086820;28;20117;-68
2023/03/25 09:39:54;;;;;;;3.85;1.30;;;10.70;87.80;;;;;;5084666;28;20475;-68
2023/03/25 09:42:36;;;;;;;4.90;1.40;;;10.60;87.80;;;;;;5084745;28;20020;-66
2023/03/25 09:45:29;;;;;;;6.45;1.40;;;10.60;87.90;;;;;;5087280;28;20086;-67
2023/03/25 09:48:12;;;;;;;5.60;1.75;;;10.50;87.90;;;;;;5080435;28;20017;-68
2023/03/25 09:50:40;;;;;;;4.93;1.83;;;10.50;88.00;;;;;;5081169;28;20036;-68
2023/03/25 09:53:09;;;;;;;3.38;1.27;;;10.50;88.00;;;;;;5081737;28;20028;-67
2023/03/25 09:55:40;;;;;;;4.45;1.60;;;10.50;88.20;;;;;;5079637;28;20104;-67
2023/03/25 09:58:22;;;;;;;9.48;1.98;;;10.60;88.20;;;;;;5082940;28;20470;-68
2023/03/25 10:01:09;;;;;;;6.13;1.30;;;10.60;88.40;;;;;;5080636;28;20028;-69
2023/03/25 10:04:03;;;;;;;3.78;1.58;;;10.60;88.40;;;;;;5081584;28;20025;-68
2023/03/25 10:06:31;;;;;;;6.15;1.88;;;10.70;88.40;;;;;;5088185;28;20040;-68
2023/03/25 10:09:15;;;;;;;8.13;1.85;;;10.80;88.40;;;;;;5083000;28;20570;-69
2023/03/25 10:11:56;;;;;;;6.10;1.50;;;10.90;88.20;;;;;;5084340;28;20093;-68
2023/03/25 10:14:26;;;;;;;9.35;1.98;;;11.20;87.80;;;;;;5085213;28;20024;-68
2023/03/25 10:16:57;;;;;;;8.85;1.92;;;11.30;87.70;;;;;;5091876;28;20020;-68
2023/03/25 10:19:53;;;;;;;7.32;1.63;;;11.40;87.50;;;;;;5088997;28;20104;-68
2023/03/25 10:22:33;;;;;;;5.68;1.70;;;11.60;88.20;;;;;;5087498;28;20044;-68
2023/03/25 10:25:12;;;;;;;7.43;1.92;;;11.70;87.30;;;;;;5086700;28;20035;-68
2023/03/25 10:27:41;;;;;;;4.70;1.40;;;11.80;87.00;;;;;;5086365;28;20100;-68
2023/03/25 10:30:22;;;;;;;7.40;1.55;;;11.80;86.70;;;;;;5083476;28;20108;-68
2023/03/25 10:32:55;;;;;;;8.00;1.98;;;11.80;86.70;;;;;;5084322;28;20036;-67
2023/03/25 10:35:29;;;;;;;7.70;1.60;;;11.70;86.70;;;;;;5080914;28;20058;-69
2023/03/25 10:38:09;;;;;;;3.00;0.98;;;11.80;86.80;;;;;;5083339;28;20027;-68
2023/03/25 10:40:43;;;;;;;4.22;1.90;;;12.00;86.80;;;;;;5079972;28;20059;-68
2023/03/25 10:43:20;;;;;;;9.23;2.20;;;12.00;86.50;;;;;;5085211;28;20028;-68
2023/03/25 10:45:48;;;;;;;9.73;1.90;;;11.90;86.20;;;;;;5083384;28;20036;-68
2023/03/25 10:48:22;;;;;;;7.38;1.50;;;11.80;86.30;;;;;;5085783;28;20107;-68
2023/03/25 10:51:00;;;;;;;11.13;1.90;;;11.60;86.30;;;;;;5081536;28;20995;-68
2023/03/25 10:53:28;;;;;;;8.65;1.65;;;11.60;86.70;;;;;;5082795;28;20073;-67
2023/03/25 10:55:58;;;;;;;3.30;1.30;;;11.60;86.80;;;;;;5080269;28;20031;-68
2023/03/25 10:58:25;;;;;;;5.57;1.27;;;11.50;86.90;;;;;;5082318;28;20025;-69
2023/03/25 11:00:50;;;;;;;7.72;1.48;;;11.50;87.70;;;;;;5081400;28;20020;-68
2023/03/25 11:03:23;;;;;;;9.52;1.60;;;11.40;87.10;;;;;;5083187;28;20017;-68
2023/03/25 11:05:50;;;;;;;4.60;1.48;;;11.20;87.20;;;;;;5081610;28;20028;-68
2023/03/25 11:08:20;;;;;;;6.05;1.23;;;11.10;87.60;;;;;;5085488;28;20097;-68
2023/03/25 11:10:56;;;;;;;8.18;1.60;;;11.00;87.80;;;;;;5082351;28;20454;-68
2023/03/25 11:13:27;;;;;;;6.22;1.40;;;11.00;88.00;;;;;;5080785;28;20104;-68
2023/03/25 11:15:55;;;;;;;5.90;1.60;;;11.10;88.00;;;;;;5081931;28;20027;-68
2023/03/25 11:18:39;;;;;;;8.60;1.58;;;11.20;88.00;;;;;;5082067;28;20026;-67
2023/03/25 11:21:11;;;;;;;5.70;1.75;;;11.20;88.10;;;;;;5084966;28;20471;-68
2023/03/25 11:23:43;;;;;;;4.55;1.38;;;11.30;88.10;;;;;;5084182;28;20012;-68
2023/03/25 11:26:20;;;;;;;9.25;2.10;;;11.50;88.00;;;;;;5080385;28;20035;-68
2023/03/25 11:28:53;;;;;;;5.70;1.48;;;11.50;87.60;;;;;;5083706;28;20028;-68
2023/03/25 11:31:24;;;;;;;4.60;1.35;;;11.60;87.20;;;;;;5081234;28;20111;-68
2023/03/25 11:34:13;;;;;;;4.88;1.30;;;11.60;86.90;;;;;;5084909;28;20020;-68
2023/03/25 11:36:46;;;;;;;7.30;1.17;;;11.50;86.90;;;;;;5081859;28;20028;-68
2023/03/25 11:39:17;;;;;;;2.65;0.90;;;11.40;87.00;;;;;;5082847;28;20363;-68
2023/03/25 11:41:43;;;;;;;6.65;1.48;;;11.30;87.30;;;;;;5078496;28;20108;-68
2023/03/25 11:44:28;;;;;;;5.55;1.48;;;11.20;87.60;;;;;;5082147;28;20084;-68
2023/03/25 11:46:59;;;;;;;4.07;1.20;;;11.20;87.80;;;;;;5083801;28;20028;-67
2023/03/25 11:49:25;;;;;;;7.18;1.48;;;11.20;87.90;;;;;;5082120;28;20043;-68
2023/03/25 11:52:00;;;;;;;7.15;2.17;;;11.30;87.80;;;;;;5082227;28;20024;-67
2023/03/25 11:54:26;;;;;;;5.90;1.17;;;11.30;87.60;;;;;;5085354;28;20095;-68
2023/03/25 11:56:54;;;;;;;9.18;2.05;;;11.40;87.50;;;;;;5080740;28;20023;-67
2023/03/25 11:59:37;;;;;;;3.58;1.10;;;11.50;87.00;;;;;;5083852;28;20016;-66
2023/03/25 12:02:22;;;;;;;5.60;1.33;;;11.60;86.70;;;;;;5083332;28;20562;-68
2023/03/25 12:05:13;;;;;;;5.88;1.60;;;11.70;86.30;;;;;;5080951;28;20048;-68
2023/03/25 12:07:41;;;;;;;3.03;0.90;;;11.80;85.60;;;;;;5080254;28;20123;-68
2023/03/25 12:10:14;;;;;;;5.50;1.35;;;11.90;85.60;;;;;;5083376;28;20028;-68
2023/03/25 12:12:54;;;;;;;4.43;1.08;;;12.10;85.30;;;;;;5082273;28;20024;-67
2023/03/25 12:15:34;;;;;;;7.95;1.40;;;12.20;84.90;;;;;;5080478;28;20505;-68
2023/03/25 12:18:14;;;;;;;7.88;1.52;;;12.20;84.10;;;;;;5079828;28;20165;-68
2023/03/25 12:20:57;;;;;;;6.78;1.73;;;12.20;83.50;;;;;;5079879;28;20091;-68
2023/03/25 12:23:43;;;;;;;4.97;1.20;;;12.20;83.50;;;;;;5083032;28;20024;-69
2023/03/25 12:26:53;;;;;;;7.85;1.60;;;12.20;83.60;;;;;;5081468;28;20028;-68
2023/03/25 12:29:42;;;;;;;4.30;1.30;;;12.30;82.30;;;;;;5063303;28;20101;-67
2023/03/25 12:32:40;;;;;;;4.68;1.02;;;12.30;82.70;;;;;;5081826;28;20491;-68
2023/03/25 12:35:32;;;;;;;5.22;1.20;;;12.20;82.70;;;;;;5080155;28;20031;-68
2023/03/25 12:38:27;;;;;;;4.43;1.20;;;12.20;83.00;;;;;;5083765;28;20024;-66
2023/03/25 12:41:13;;;;;;;4.88;0.93;;;12.10;83.20;;;;;;5081734;28;20514;-68
2023/03/25 12:44:00;;;;;;;4.40;1.00;;;12.10;83.50;;;;;;5083431;28;20020;-68
2023/03/25 12:46:52;;;;;;;6.10;1.25;;;12.00;83.50;;;;;;5077969;28;20032;-68
2023/03/25 12:49:36;;;;;;;3.70;0.80;;;11.90;83.80;;;;;;5083779;28;20040;-68
2023/03/25 12:52:21;;;;;;;2.15;0.88;;;11.60;84.10;;;;;;5084166;28;20034;-68
2023/03/25 12:55:07;;;;;;;2.45;1.00;;;11.30;84.50;;;;;;5081920;28;20047;-68
2023/03/25 12:58:01;;;;;;;6.03;1.20;;;11.20;85.30;;;;;;5079829;28;20016;-69
2023/03/25 13:00:38;;;;;;;2.97;0.90;;;11.00;85.70;;;;;;5081813;28;20033;-68
2023/03/25 13:03:28;;;;;;;4.53;1.10;;;10.90;85.90;;;;;;5082215;28;20032;-67
2023/03/25 13:06:22;;;;;;;2.92;1.10;;;10.80;86.00;;;;;;5081031;28;20040;-67
2023/03/25 13:08:56;;;;;;;2.85;0.98;;;10.80;86.40;;;;;;5075149;28;20043;-69
2023/03/25 13:11:48;;;;;;;7.35;1.25;;;10.80;86.50;;;;;;5081522;28;20035;-68
2023/03/25 13:14:20;;;;;;;2.83;1.10;;;11.00;86.40;;;;;;5082141;28;20042;-68